createdAt,value
2023-03-18T00:01:39.371Z,49.60
2023-03-18T00:03:41.322Z,49.70
2023-03-18T00:05:43.107Z,49.48
2023-03-18T00:07:44.978Z,49.55
2023-03-18T00:09:46.910Z,49.71
2023-03-18T00:11:48.834Z,49.73
2023-03-18T00:13:50.770Z,49.47
2023-03-18T00:15:52.709Z,49.66
2023-03-18T00:17:55.737Z,49.40
2023-03-18T00:19:57.345Z,49.47
2023-03-18T00:21:59.349Z,49.67
2023-03-18T00:24:00.961Z,50.01
2023-03-18T00:26:03.174Z,49.68
2023-03-18T00:28:06.805Z,49.66
2023-03-18T00:30:09.865Z,50.06
2023-03-18T00:32:11.434Z,50.09
2023-03-18T00:34:14.449Z,50.38
2023-03-18T00:36:16.936Z,50.05
2023-03-18T00:38:18.747Z,50.29
2023-03-18T00:40:20.767Z,50.46
2023-03-18T00:42:22.361Z,50.23
2023-03-18T00:44:25.137Z,50.27
2023-03-18T00:46:29.535Z,49.80
2023-03-18T00:48:31.377Z,50.33
2023-03-18T00:50:35.157Z,49.81
2023-03-18T00:52:37.225Z,49.91
2023-03-18T00:54:39.030Z,50.45
2023-03-18T00:56:40.778Z,49.90
2023-03-18T00:58:43.590Z,50.40
2023-03-18T01:00:46.337Z,50.25
2023-03-18T01:02:48.293Z,50.57
2023-03-18T01:04:54.878Z,50.13
2023-03-18T01:06:58.866Z,50.65
2023-03-18T01:09:01.026Z,50.40
2023-03-18T01:11:03.912Z,50.17
2023-03-18T01:13:08.163Z,50.66
2023-03-18T01:15:14.304Z,49.96
2023-03-18T01:17:16.140Z,50.49
2023-03-18T01:19:17.881Z,50.86
2023-03-18T01:21:20.208Z,50.67
2023-03-18T01:23:23.645Z,50.91
2023-03-18T01:25:25.144Z,50.89
2023-03-18T01:27:26.739Z,50.79
2023-03-18T01:29:28.320Z,50.27
2023-03-18T01:31:30.193Z,50.42
2023-03-18T01:33:32.531Z,50.27
2023-03-18T01:35:35.579Z,50.74
2023-03-18T01:37:37.415Z,50.63
2023-03-18T01:39:40.502Z,50.89
2023-03-18T01:41:42.260Z,51.03
2023-03-18T01:43:44.277Z,50.93
2023-03-18T01:45:49.066Z,50.63
2023-03-18T01:47:51.648Z,50.86
2023-03-18T01:49:53.651Z,50.94
2023-03-18T01:51:59.097Z,51.15
2023-03-18T01:54:05.728Z,50.23
2023-03-18T01:56:08.946Z,50.52
2023-03-18T01:58:17.969Z,50.85
2023-03-18T02:00:20.466Z,50.88
2023-03-18T02:02:22.517Z,51.05
2023-03-18T02:04:30.409Z,50.82
2023-03-18T02:06:33.542Z,50.80
2023-03-18T02:08:36.243Z,51.09
2023-03-18T02:10:39.048Z,50.39
2023-03-18T02:12:46.306Z,50.69
2023-03-18T02:14:48.866Z,50.52
2023-03-18T02:16:56.208Z,51.03
2023-03-18T02:19:02.610Z,51.21
2023-03-18T02:21:19.684Z,50.49
2023-03-18T02:23:29.796Z,50.81
2023-03-18T02:25:42.610Z,50.70
2023-03-18T02:27:48.792Z,51.33
2023-03-18T02:29:55.545Z,50.60
2023-03-18T02:31:57.314Z,51.02
2023-03-18T02:34:00.130Z,50.75
2023-03-18T02:36:05.116Z,51.57
2023-03-18T02:38:07.837Z,50.83
2023-03-18T02:40:14.916Z,50.73
2023-03-18T02:42:28.486Z,51.12
2023-03-18T02:44:33.388Z,51.26
2023-03-18T02:46:48.134Z,50.84
2023-03-18T02:48:50.655Z,50.54
2023-03-18T02:50:55.804Z,50.78
2023-03-18T02:52:57.676Z,51.42
2023-03-18T02:54:59.714Z,50.99
2023-03-18T02:57:05.034Z,51.07
2023-03-18T02:59:07.628Z,50.80
2023-03-18T03:01:13.233Z,51.48
2023-03-18T03:03:14.950Z,51.53
2023-03-18T03:05:17.282Z,51.63
2023-03-18T03:07:18.903Z,52.00
2023-03-18T03:09:21.521Z,51.09
2023-03-18T03:11:24.174Z,51.64
2023-03-18T03:13:26.006Z,51.78
2023-03-18T03:15:27.661Z,51.74
2023-03-18T03:17:30.722Z,51.72
2023-03-18T03:19:32.251Z,51.67
2023-03-18T03:21:34.573Z,51.96
2023-03-18T03:23:36.879Z,52.58
2023-03-18T03:25:39.170Z,52.15
2023-03-18T03:27:41.334Z,52.65
2023-03-18T03:29:44.757Z,52.73
2023-03-18T03:31:46.424Z,52.37
2023-03-18T03:33:49.841Z,52.20
2023-03-18T03:35:53.120Z,52.43
2023-03-18T03:37:54.814Z,52.79
2023-03-18T03:39:56.639Z,53.15
2023-03-18T03:41:58.493Z,52.86
2023-03-18T03:44:00.669Z,52.89
2023-03-18T03:46:04.113Z,52.50
2023-03-18T03:48:09.828Z,52.54
2023-03-18T03:50:13.922Z,52.78
2023-03-18T03:52:15.708Z,52.94
2023-03-18T03:54:17.533Z,52.63
2023-03-18T03:56:19.170Z,52.25
2023-03-18T03:58:21.263Z,52.78
2023-03-18T04:00:25.660Z,52.69
2023-03-18T04:02:27.912Z,52.74
2023-03-18T04:04:29.769Z,52.54
2023-03-18T04:06:32.981Z,52.57
2023-03-18T04:08:34.786Z,52.25
2023-03-18T04:10:36.332Z,52.43
2023-03-18T04:12:39.932Z,52.60
2023-03-18T04:14:42.250Z,52.67
2023-03-18T04:16:44.022Z,52.38
2023-03-18T04:18:45.654Z,52.50
2023-03-18T04:20:47.478Z,52.46
2023-03-18T04:22:51.319Z,51.98
2023-03-18T04:24:52.891Z,52.78
2023-03-18T04:26:54.461Z,52.17
2023-03-18T04:28:56.581Z,52.96
2023-03-18T04:30:58.465Z,53.07
2023-03-18T04:33:00.538Z,52.29
2023-03-18T04:35:02.184Z,53.17
2023-03-18T04:37:03.875Z,52.43
2023-03-18T04:39:07.244Z,53.07
2023-03-18T04:41:09.200Z,52.25
2023-03-18T04:43:11.097Z,52.57
2023-03-18T04:45:12.649Z,53.14
2023-03-18T04:47:14.317Z,53.35
2023-03-18T04:49:16.251Z,53.01
2023-03-18T04:51:17.835Z,53.13
2023-03-18T04:53:20.894Z,53.29
2023-03-18T04:55:26.078Z,53.08
2023-03-18T04:57:27.877Z,53.00
2023-03-18T04:59:29.997Z,52.66
2023-03-18T05:01:33.295Z,52.66
2023-03-18T05:03:35.627Z,52.79
2023-03-18T05:05:38.801Z,52.72
2023-03-18T05:07:41.213Z,52.33
2023-03-18T05:09:42.924Z,53.06
2023-03-18T05:11:46.352Z,53.31
2023-03-18T05:13:49.230Z,52.82
2023-03-18T05:15:51.548Z,53.44
2023-03-18T05:17:53.458Z,53.31
2023-03-18T05:19:55.068Z,53.24
2023-03-18T05:21:56.604Z,53.02
2023-03-18T05:23:58.618Z,53.12
2023-03-18T05:26:00.665Z,53.23
2023-03-18T05:28:03.912Z,53.49
2023-03-18T05:30:07.517Z,53.70
2023-03-18T05:32:10.210Z,53.36
2023-03-18T05:34:11.959Z,53.57
2023-03-18T05:36:13.853Z,53.13
2023-03-18T05:38:16.266Z,53.48
2023-03-18T05:40:17.995Z,53.28
2023-03-18T05:42:20.077Z,53.51
2023-03-18T05:44:23.524Z,53.75
2023-03-18T05:46:25.206Z,53.53
2023-03-18T05:48:27.103Z,53.96
2023-03-18T05:50:30.903Z,53.54
2023-03-18T05:52:32.804Z,54.20
2023-03-18T05:54:34.341Z,53.35
2023-03-18T05:56:36.091Z,53.78
2023-03-18T05:58:37.710Z,54.12
2023-03-18T06:00:41.244Z,53.70
2023-03-18T06:02:43.056Z,53.78
2023-03-18T06:04:44.706Z,53.53
2023-03-18T06:06:47.281Z,54.24
2023-03-18T06:08:48.927Z,54.34
2023-03-18T06:10:50.517Z,54.35
2023-03-18T06:12:53.353Z,54.42
2023-03-18T06:14:55.352Z,54.14
2023-03-18T06:17:01.765Z,54.26
2023-03-18T06:19:04.599Z,54.34
2023-03-18T06:21:10.006Z,54.07
2023-03-18T06:23:11.742Z,53.82
2023-03-18T06:25:14.275Z,54.49
2023-03-18T06:27:16.116Z,53.69
2023-03-18T06:29:17.666Z,53.61
2023-03-18T06:31:19.922Z,53.85
2023-03-18T06:33:23.119Z,54.38
2023-03-18T06:35:25.152Z,53.89
2023-03-18T06:37:26.789Z,54.14
2023-03-18T06:39:28.854Z,54.12
2023-03-18T06:41:30.724Z,54.04
2023-03-18T06:43:32.790Z,53.63
2023-03-18T06:45:36.313Z,54.05
2023-03-18T06:47:38.459Z,53.35
2023-03-18T06:49:42.521Z,53.67
2023-03-18T06:51:44.298Z,53.38
2023-03-18T06:53:45.939Z,53.33
2023-03-18T06:55:47.970Z,53.60
2023-03-18T06:57:49.682Z,53.22
2023-03-18T06:59:51.782Z,52.73
2023-03-18T07:01:54.889Z,52.40
2023-03-18T07:03:57.268Z,52.64
2023-03-18T07:06:00.754Z,52.22
2023-03-18T07:08:02.876Z,52.21
2023-03-18T07:10:06.184Z,51.80
2023-03-18T07:12:08.167Z,51.38
2023-03-18T07:14:10.507Z,50.79
2023-03-18T07:16:12.460Z,51.46
2023-03-18T07:18:14.653Z,51.58
2023-03-18T07:20:21.303Z,50.90
2023-03-18T07:22:24.355Z,51.18
2023-03-18T07:24:26.368Z,50.92
2023-03-18T07:26:28.171Z,50.50
2023-03-18T07:28:30.074Z,50.84
2023-03-18T07:30:32.241Z,50.42
2023-03-18T07:32:34.108Z,49.94
2023-03-18T07:34:36.259Z,50.17
2023-03-18T07:36:38.186Z,50.00
2023-03-18T07:38:41.406Z,49.47
2023-03-18T07:40:43.166Z,49.87
2023-03-18T07:42:44.783Z,50.16
2023-03-18T07:44:46.405Z,49.67
2023-03-18T07:46:48.348Z,49.56
2023-03-18T07:48:51.828Z,49.47
2023-03-18T07:50:53.483Z,49.39
2023-03-18T07:52:58.152Z,48.44
2023-03-18T07:55:01.578Z,49.20
2023-03-18T07:57:05.228Z,48.56
2023-03-18T07:59:06.874Z,48.54
2023-03-18T08:01:08.732Z,49.04
2023-03-18T08:03:12.229Z,49.08
2023-03-18T08:05:14.032Z,48.98
2023-03-18T08:07:16.195Z,48.53
2023-03-18T08:09:17.862Z,48.99
2023-03-18T08:11:21.382Z,49.13
2023-03-18T08:13:23.137Z,48.84
2023-03-18T08:15:26.391Z,48.99
2023-03-18T08:17:28.237Z,48.98
2023-03-18T08:19:32.360Z,49.52
2023-03-18T08:21:34.275Z,49.15
2023-03-18T08:23:39.993Z,49.03
2023-03-18T08:25:42.180Z,49.29
2023-03-18T08:27:45.561Z,48.80
2023-03-18T08:29:47.179Z,48.90
2023-03-18T08:31:48.901Z,49.15
2023-03-18T08:33:50.798Z,49.30
2023-03-18T08:35:53.071Z,49.03
2023-03-18T08:37:55.339Z,48.97
2023-03-18T08:39:57.770Z,48.84
2023-03-18T08:41:59.456Z,49.33
2023-03-18T08:44:03.610Z,49.95
2023-03-18T08:46:07.884Z,48.99
2023-03-18T08:48:09.963Z,49.10
2023-03-18T08:50:15.470Z,49.57
2023-03-18T08:52:17.202Z,49.07
2023-03-18T08:54:19.015Z,49.26
2023-03-18T08:56:21.296Z,49.51
2023-03-18T08:58:23.110Z,49.35
2023-03-18T09:00:27.149Z,49.46
2023-03-18T09:02:28.781Z,49.38
2023-03-18T09:04:30.363Z,49.20
2023-03-18T09:06:32.376Z,49.95
2023-03-18T09:08:34.312Z,49.94
2023-03-18T09:10:36.013Z,49.75
2023-03-18T09:12:37.911Z,50.01
2023-03-18T09:14:40.075Z,49.78
2023-03-18T09:16:43.130Z,49.99
2023-03-18T09:18:47.080Z,50.24
2023-03-18T09:20:50.642Z,49.47
2023-03-18T09:22:52.470Z,49.45
2023-03-18T09:24:54.290Z,49.94
2023-03-18T09:26:56.398Z,50.48
2023-03-18T09:28:57.881Z,49.87
2023-03-18T09:31:01.007Z,50.11
2023-03-18T09:33:04.770Z,50.38
2023-03-18T09:35:07.643Z,49.85
2023-03-18T09:37:09.297Z,50.36
2023-03-18T09:39:12.583Z,49.97
2023-03-18T09:41:38.505Z,50.05
2023-03-18T09:43:52.788Z,50.09
2023-03-18T09:46:02.915Z,50.42
2023-03-18T09:48:40.612Z,50.54
2023-03-18T09:50:50.952Z,50.49
2023-03-18T09:52:56.901Z,50.21
2023-03-18T09:55:05.445Z,50.26
2023-03-18T09:57:15.686Z,50.29
2023-03-18T09:59:22.252Z,50.49
2023-03-18T10:01:28.431Z,50.34
2023-03-18T10:03:40.108Z,50.36
2023-03-18T10:05:49.137Z,50.07
2023-03-18T10:07:55.362Z,50.93
2023-03-18T10:10:02.864Z,50.85
2023-03-18T10:12:15.503Z,50.27
2023-03-18T10:14:28.705Z,50.38
2023-03-18T10:16:37.048Z,49.94
2023-03-18T10:18:44.311Z,50.67
2023-03-18T10:21:03.612Z,50.50
2023-03-18T10:23:17.197Z,50.63
2023-03-18T10:25:26.995Z,50.07
2023-03-18T10:27:45.731Z,50.73
2023-03-18T10:29:52.593Z,50.79
2023-03-18T10:32:11.807Z,50.66
2023-03-18T10:34:21.898Z,50.60
2023-03-18T10:36:32.236Z,50.49
2023-03-18T10:38:36.617Z,50.19
2023-03-18T10:40:41.461Z,49.93
2023-03-18T10:42:44.184Z,49.82
2023-03-18T10:44:46.758Z,49.55
2023-03-18T10:46:56.764Z,49.58
2023-03-18T10:49:05.910Z,49.03
2023-03-18T10:51:16.855Z,48.34
2023-03-18T10:53:23.964Z,49.35
2023-03-18T10:55:31.289Z,48.84
2023-03-18T10:57:32.874Z,48.78
2023-03-18T10:59:34.881Z,48.62
2023-03-18T11:01:38.815Z,48.14
2023-03-18T11:03:45.488Z,48.35
2023-03-18T11:05:48.199Z,47.88
2023-03-18T11:08:00.504Z,48.13
2023-03-18T11:10:13.935Z,48.22
2023-03-18T11:12:19.355Z,47.98
2023-03-18T11:14:22.842Z,47.85
2023-03-18T11:16:30.157Z,47.82
2023-03-18T11:18:31.756Z,47.74
2023-03-18T11:20:37.033Z,47.54
2023-03-18T11:22:45.421Z,47.88
2023-03-18T11:25:01.957Z,48.45
2023-03-18T11:27:04.109Z,47.56
2023-03-18T11:29:12.641Z,48.03
2023-03-18T11:31:18.472Z,47.21
2023-03-18T11:33:25.602Z,46.29
2023-03-18T11:35:36.247Z,46.42
2023-03-18T11:37:40.758Z,46.06
2023-03-18T11:39:42.447Z,46.20
2023-03-18T11:41:47.791Z,46.93
2023-03-18T11:43:59.585Z,47.15
2023-03-18T11:46:04.923Z,47.17
2023-03-18T11:48:14.766Z,47.07
2023-03-18T11:50:21.973Z,46.37
2023-03-18T11:52:36.852Z,46.75
2023-03-18T11:55:02.317Z,47.27
2023-03-18T11:57:11.893Z,47.12
2023-03-18T11:59:30.329Z,46.55
2023-03-18T12:01:42.776Z,46.47
2023-03-18T12:04:14.252Z,45.91
2023-03-18T12:06:21.104Z,46.45
2023-03-18T12:08:33.535Z,45.90
2023-03-18T12:10:39.576Z,46.15
2023-03-18T12:12:54.792Z,46.36
2023-03-18T12:15:05.257Z,46.02
2023-03-18T12:17:20.048Z,46.17
2023-03-18T12:20:10.035Z,45.71
2023-03-18T12:22:31.968Z,45.59
2023-03-18T12:24:55.900Z,46.28
2023-03-18T12:27:03.224Z,46.44
2023-03-18T12:29:29.151Z,46.19
2023-03-18T12:31:49.709Z,46.12
2023-03-18T12:33:55.280Z,45.92
2023-03-18T12:36:08.953Z,46.28
2023-03-18T12:38:42.134Z,46.46
2023-03-18T12:40:56.628Z,45.69
2023-03-18T12:43:20.956Z,45.86
2023-03-18T12:45:28.446Z,45.47
2023-03-18T12:47:37.356Z,45.38
2023-03-18T12:49:45.771Z,45.46
2023-03-18T12:51:54.275Z,44.84
2023-03-18T12:54:03.537Z,45.09
2023-03-18T12:56:11.716Z,45.53
2023-03-18T12:58:17.895Z,45.66
2023-03-18T13:00:24.655Z,44.76
2023-03-18T13:02:41.776Z,45.93
2023-03-18T13:04:53.732Z,45.31
2023-03-18T13:07:03.204Z,44.83
2023-03-18T13:09:13.007Z,45.81
2023-03-18T13:11:32.244Z,46.19
2023-03-18T13:13:36.900Z,45.61
2023-03-18T13:15:41.926Z,46.06
2023-03-18T13:17:48.403Z,45.70
2023-03-18T13:19:50.250Z,46.14
2023-03-18T13:22:02.864Z,45.97
2023-03-18T13:24:25.393Z,46.27
2023-03-18T13:26:43.685Z,46.28
2023-03-18T13:28:57.795Z,46.57
2023-03-18T13:31:10.317Z,46.54
2023-03-18T13:33:34.674Z,46.31
2023-03-18T13:36:02.113Z,46.65
2023-03-18T13:38:21.492Z,47.25
2023-03-18T13:40:37.452Z,47.15
2023-03-18T13:42:41.784Z,46.28
2023-03-18T13:44:47.638Z,46.66
2023-03-18T13:46:57.785Z,46.96
2023-03-18T13:49:02.609Z,47.24
2023-03-18T13:51:20.090Z,47.32
2023-03-18T13:53:28.278Z,47.37
2023-03-18T13:55:33.812Z,47.73
2023-03-18T13:57:54.849Z,47.57
2023-03-18T14:00:23.019Z,47.41
2023-03-18T14:02:33.462Z,47.80
2023-03-18T14:04:47.723Z,47.80
2023-03-18T14:06:54.555Z,47.62
2023-03-18T14:08:56.845Z,47.53
2023-03-18T14:11:47.612Z,47.43
2023-03-18T14:13:51.116Z,47.33
2023-03-18T14:15:57.630Z,47.20
2023-03-18T14:18:00.384Z,47.07
2023-03-18T14:20:12.949Z,47.29
2023-03-18T14:22:22.098Z,47.08
2023-03-18T14:24:25.901Z,47.14
2023-03-18T14:26:27.814Z,46.96
2023-03-18T14:28:37.322Z,46.59
2023-03-18T14:31:03.321Z,47.16
2023-03-18T14:33:28.711Z,47.13
2023-03-18T14:35:35.166Z,46.94
2023-03-18T14:37:58.986Z,47.46
2023-03-18T14:40:05.801Z,47.63
2023-03-18T14:42:26.042Z,48.21
2023-03-18T14:44:36.225Z,48.01
2023-03-18T14:46:42.295Z,47.69
2023-03-18T14:48:44.113Z,48.15
2023-03-18T14:50:49.901Z,48.72
2023-03-18T14:52:58.526Z,48.23
2023-03-18T14:55:05.481Z,48.35
2023-03-18T14:57:07.681Z,49.14
2023-03-18T14:59:15.055Z,48.59
2023-03-18T15:01:17.153Z,48.66
2023-03-18T15:03:22.714Z,48.54
2023-03-18T15:05:26.731Z,49.03
2023-03-18T15:07:34.175Z,48.66
2023-03-18T15:09:36.313Z,48.83
2023-03-18T15:11:41.619Z,48.67
2023-03-18T15:13:43.708Z,48.94
2023-03-18T15:15:45.408Z,49.14
2023-03-18T15:17:48.742Z,49.13
2023-03-18T15:19:50.400Z,49.19
2023-03-18T15:21:52.387Z,49.30
2023-03-18T15:23:59.433Z,49.45
2023-03-18T15:26:02.767Z,49.36
2023-03-18T15:28:06.122Z,49.87
2023-03-18T15:30:25.136Z,49.65
2023-03-18T15:32:29.545Z,49.84
2023-03-18T15:34:31.849Z,49.12
2023-03-18T15:36:40.840Z,49.28
2023-03-18T15:38:47.003Z,49.61
2023-03-18T15:40:52.502Z,49.11
2023-03-18T15:42:56.177Z,49.87
2023-03-18T15:45:01.081Z,49.49
2023-03-18T15:47:13.172Z,49.75
2023-03-18T15:49:15.876Z,49.66
2023-03-18T15:51:25.351Z,49.60
2023-03-18T15:53:28.722Z,49.89
2023-03-18T15:55:34.110Z,50.26
2023-03-18T15:57:39.751Z,50.30
2023-03-18T15:59:44.402Z,50.19
2023-03-18T16:01:46.304Z,50.53
2023-03-18T16:03:47.854Z,50.51
2023-03-18T16:05:51.724Z,50.67
2023-03-18T16:07:54.319Z,50.80
2023-03-18T16:09:56.168Z,51.10
2023-03-18T16:12:01.136Z,50.58
2023-03-18T16:14:04.331Z,51.07
2023-03-18T16:16:09.168Z,51.01
2023-03-18T16:18:11.045Z,51.06
2023-03-18T16:20:17.569Z,50.67
2023-03-18T16:22:19.592Z,51.50
2023-03-18T16:24:21.219Z,51.17
2023-03-18T16:26:22.859Z,51.42
2023-03-18T16:28:26.674Z,51.39
2023-03-18T16:30:31.791Z,51.44
2023-03-18T16:32:33.502Z,51.69
2023-03-18T16:34:35.108Z,52.23
2023-03-18T16:36:36.715Z,52.19
2023-03-18T16:38:39.129Z,52.37
2023-03-18T16:40:45.483Z,52.21
2023-03-18T16:42:48.011Z,52.04
2023-03-18T16:44:50.178Z,52.64
2023-03-18T16:46:55.591Z,52.02
2023-03-18T16:48:58.658Z,52.42
2023-03-18T16:51:02.797Z,52.46
2023-03-18T16:53:13.313Z,52.20
2023-03-18T16:55:17.440Z,52.92
2023-03-18T16:57:21.715Z,52.85
2023-03-18T16:59:24.521Z,52.49
2023-03-18T17:01:28.566Z,52.66
2023-03-18T17:03:32.834Z,52.86
2023-03-18T17:05:34.933Z,53.05
2023-03-18T17:07:37.040Z,52.89
2023-03-18T17:09:38.914Z,52.87
2023-03-18T17:11:41.695Z,52.86
2023-03-18T17:13:43.551Z,53.08
2023-03-18T17:15:45.309Z,53.19
2023-03-18T17:17:54.647Z,52.95
2023-03-18T17:19:58.031Z,52.93
2023-03-18T17:21:59.544Z,53.39
2023-03-18T17:24:01.149Z,52.81
2023-03-18T17:26:03.231Z,53.07
2023-03-18T17:28:06.994Z,53.13
2023-03-18T17:30:17.110Z,52.98
2023-03-18T17:32:19.729Z,53.32
2023-03-18T17:34:22.198Z,53.09
2023-03-18T17:36:25.295Z,53.40
2023-03-18T17:38:27.117Z,53.34
2023-03-18T17:40:30.369Z,53.70
2023-03-18T17:42:34.221Z,53.71
2023-03-18T17:44:35.866Z,53.56
2023-03-18T17:46:37.768Z,53.29
2023-03-18T17:48:40.114Z,53.46
2023-03-18T17:50:42.657Z,53.40
2023-03-18T17:52:48.514Z,53.42
2023-03-18T17:54:50.172Z,53.78
2023-03-18T17:56:52.120Z,53.62
2023-03-18T17:58:55.344Z,53.72
2023-03-18T18:01:02.957Z,53.49
2023-03-18T18:03:06.876Z,54.18
2023-03-18T18:05:13.686Z,53.59
2023-03-18T18:07:17.678Z,54.16
2023-03-18T18:09:21.482Z,54.43
2023-03-18T18:11:26.099Z,54.36
2023-03-18T18:13:31.038Z,54.47
2023-03-18T18:15:33.202Z,54.93
2023-03-18T18:17:34.946Z,54.94
2023-03-18T18:19:38.996Z,54.88
2023-03-18T18:21:42.357Z,55.04
2023-03-18T18:23:46.529Z,55.92
2023-03-18T18:25:49.478Z,55.51
2023-03-18T18:27:51.268Z,55.24
2023-03-18T18:29:54.321Z,55.63
2023-03-18T18:31:56.335Z,55.53
2023-03-18T18:33:58.090Z,55.56
2023-03-18T18:36:00.674Z,55.50
2023-03-18T18:38:02.371Z,55.90
2023-03-18T18:40:05.274Z,55.82
2023-03-18T18:42:08.483Z,55.70
2023-03-18T18:44:10.129Z,56.06
2023-03-18T18:46:13.430Z,56.31
2023-03-18T18:48:17.329Z,56.05
2023-03-18T18:50:21.037Z,56.42
2023-03-18T18:52:22.894Z,56.58
2023-03-18T18:54:25.378Z,56.66
2023-03-18T18:56:32.750Z,56.25
2023-03-18T18:58:37.568Z,56.62
2023-03-18T19:00:39.399Z,56.55
2023-03-18T19:02:41.070Z,57.05
2023-03-18T19:04:42.670Z,57.14
2023-03-18T19:06:45.096Z,57.02
2023-03-18T19:08:47.119Z,57.00
2023-03-18T19:10:49.127Z,57.20
2023-03-18T19:12:50.949Z,56.88
2023-03-18T19:14:55.367Z,57.38
2023-03-18T19:16:58.940Z,57.36
2023-03-18T19:19:01.198Z,57.36
2023-03-18T19:21:02.816Z,57.64
2023-03-18T19:23:13.215Z,57.41
2023-03-18T19:25:14.955Z,58.09
2023-03-18T19:27:21.761Z,57.22
2023-03-18T19:29:25.496Z,58.01
2023-03-18T19:31:31.248Z,57.37
2023-03-18T19:33:33.059Z,57.79
2023-03-18T19:35:35.256Z,58.47
2023-03-18T19:37:41.572Z,58.16
2023-03-18T19:39:44.899Z,58.76
2023-03-18T19:41:47.190Z,58.83
2023-03-18T19:43:49.531Z,59.46
2023-03-18T19:45:52.866Z,59.63
2023-03-18T19:47:56.001Z,59.78
2023-03-18T19:49:57.761Z,60.15
2023-03-18T19:52:01.969Z,60.50
2023-03-18T19:54:25.035Z,59.11
2023-03-18T19:56:35.961Z,60.00
2023-03-18T19:58:38.299Z,60.59
2023-03-18T20:00:40.266Z,61.00
2023-03-18T20:02:43.293Z,61.00
2023-03-18T20:04:46.837Z,60.74
2023-03-18T20:06:48.753Z,60.46
2023-03-18T20:08:51.554Z,60.86
2023-03-18T20:10:55.615Z,60.86
2023-03-18T20:13:03.942Z,61.67
2023-03-18T20:15:13.587Z,61.55
2023-03-18T20:17:29.879Z,60.24
2023-03-18T20:19:31.632Z,62.15
2023-03-18T20:21:34.738Z,61.98
2023-03-18T20:23:37.078Z,62.22
2023-03-18T20:25:42.299Z,62.64
2023-03-18T20:27:44.341Z,62.25
2023-03-18T20:29:47.754Z,62.46
2023-03-18T20:31:49.861Z,62.39
2023-03-18T20:33:51.494Z,62.69
2023-03-18T20:35:54.387Z,62.97
2023-03-18T20:38:00.374Z,62.57
2023-03-18T20:40:03.405Z,63.88
2023-03-18T20:42:05.465Z,64.17
2023-03-18T20:44:12.649Z,63.11
2023-03-18T20:46:15.172Z,64.07
2023-03-18T20:48:17.196Z,63.77
2023-03-18T20:50:22.029Z,64.25
2023-03-18T20:52:27.852Z,64.53
2023-03-18T20:54:32.153Z,64.26
2023-03-18T20:56:34.236Z,64.78
2023-03-18T20:58:37.978Z,64.33
2023-03-18T21:00:39.800Z,63.80
2023-03-18T21:02:41.392Z,64.28
2023-03-18T21:04:42.983Z,64.69
2023-03-18T21:06:44.941Z,64.42
2023-03-18T21:08:46.595Z,64.80
2023-03-18T21:10:50.129Z,64.73
2023-03-18T21:12:52.596Z,64.71
2023-03-18T21:14:54.621Z,64.77
2023-03-18T21:16:56.429Z,64.69
2023-03-18T21:18:58.705Z,64.89
2023-03-18T21:21:00.583Z,64.37
2023-03-18T21:23:02.577Z,64.10
2023-03-18T21:25:07.112Z,63.50
2023-03-18T21:27:17.452Z,62.66
2023-03-18T21:29:20.042Z,64.30
2023-03-18T21:31:25.723Z,63.99
2023-03-18T21:33:29.901Z,64.07
2023-03-18T21:35:32.406Z,63.73
2023-03-18T21:37:34.946Z,63.58
2023-03-18T21:39:37.821Z,63.32
2023-03-18T21:41:40.865Z,63.21
2023-03-18T21:43:44.971Z,63.74
2023-03-18T21:45:46.680Z,63.71
2023-03-18T21:47:48.847Z,64.13
2023-03-18T21:49:50.650Z,64.36
2023-03-18T21:51:52.391Z,64.78
2023-03-18T21:53:53.949Z,64.42
2023-03-18T21:55:56.009Z,64.46
2023-03-18T21:57:57.861Z,64.83
2023-03-18T22:00:00.950Z,65.25
2023-03-18T22:02:02.625Z,65.74
2023-03-18T22:04:04.648Z,65.30
2023-03-18T22:06:09.175Z,65.37
2023-03-18T22:08:10.786Z,65.82
2023-03-18T22:10:16.068Z,65.21
2023-03-18T22:12:21.919Z,65.38
2023-03-18T22:14:23.544Z,64.50
2023-03-18T22:16:27.011Z,64.20
2023-03-18T22:18:28.620Z,64.29
2023-03-18T22:20:30.497Z,63.81
2023-03-18T22:22:36.055Z,63.73
2023-03-18T22:24:38.016Z,63.73
2023-03-18T22:26:40.066Z,64.38
2023-03-18T22:28:41.714Z,65.10
2023-03-18T22:30:45.336Z,65.51
2023-03-18T22:32:48.877Z,65.72
2023-03-18T22:34:50.630Z,65.84
2023-03-18T22:36:52.585Z,65.71
2023-03-18T22:38:54.394Z,66.45
2023-03-18T22:40:57.501Z,66.94
2023-03-18T22:43:01.027Z,66.41
2023-03-18T22:45:03.086Z,66.34
2023-03-18T22:47:05.349Z,65.97
2023-03-18T22:49:08.573Z,65.04
2023-03-18T22:51:20.118Z,64.58
2023-03-18T22:53:25.447Z,65.24
2023-03-18T22:55:32.177Z,65.30
2023-03-18T22:57:34.135Z,65.19
2023-03-18T22:59:35.949Z,64.88
2023-03-18T23:01:37.843Z,64.74
2023-03-18T23:03:39.513Z,65.52
2023-03-18T23:05:42.628Z,65.46
2023-03-18T23:07:44.434Z,64.83
2023-03-18T23:09:56.223Z,64.91
2023-03-18T23:11:58.672Z,65.82
2023-03-18T23:14:01.951Z,65.19
2023-03-18T23:16:04.955Z,65.63
2023-03-18T23:18:09.532Z,66.40
2023-03-18T23:20:14.148Z,65.42
2023-03-18T23:22:22.810Z,64.83
2023-03-18T23:24:24.619Z,65.41
2023-03-18T23:26:26.214Z,66.03
2023-03-18T23:28:28.132Z,66.21
2023-03-18T23:30:30.551Z,65.71
2023-03-18T23:32:32.648Z,64.55
2023-03-18T23:34:34.272Z,64.25
2023-03-18T23:36:35.916Z,63.98
2023-03-18T23:38:39.304Z,63.85
2023-03-18T23:40:42.459Z,66.89
2023-03-18T23:42:44.462Z,66.68
2023-03-18T23:44:46.581Z,66.93
2023-03-18T23:46:48.678Z,66.81
2023-03-18T23:48:51.076Z,67.52
2023-03-18T23:50:52.973Z,68.34
2023-03-18T23:52:54.834Z,68.58
2023-03-18T23:54:58.549Z,68.88
2023-03-18T23:57:00.315Z,69.05
2023-03-18T23:59:03.088Z,68.57
